Time;durP1;ratioP1;P1;durP2;ratioP2;P2;SDS_P1;SDS_P2;PMS_P1;PMS_P2;Temp;Humidity;BMP_temperature;BMP_pressure;BME280_temperature;BME280_humidity;BME280_pressure;Samples;Min_cycle;Max_cycle;Signal;HPM_P1;HPM_P2
2021/07/09 00:01:48;;;;;;;6.88;6.28;;;15.60;99.90;;;;;;5067298;28;20212;-72
2021/07/09 00:04:15;;;;;;;6.65;5.95;;;15.70;99.90;;;;;;5058272;28;20216;-71
2021/07/09 00:06:42;;;;;;;6.80;6.30;;;15.70;99.90;;;;;;5061773;28;20201;-71
2021/07/09 00:09:10;;;;;;;6.20;5.70;;;15.70;99.90;;;;;;5064269;28;20206;-71
2021/07/09 00:11:38;;;;;;;6.10;5.60;;;15.70;99.90;;;;;;5063769;28;20742;-72
2021/07/09 00:16:41;;;;;;;6.00;5.40;;;15.70;99.90;;;;;;5024578;28;20218;-73
2021/07/09 00:21:38;;;;;;;6.05;5.65;;;15.70;99.90;;;;;;5029413;28;20221;-71
2021/07/09 00:24:07;;;;;;;5.50;5.20;;;15.70;99.90;;;;;;5028794;28;20292;-71
2021/07/09 00:26:33;;;;;;;5.93;5.38;;;15.80;99.90;;;;;;5032933;28;20202;-71
2021/07/09 00:29:00;;;;;;;6.00;5.50;;;15.80;99.90;;;;;;5037542;28;20210;-72
2021/07/09 00:31:29;;;;;;;5.78;5.45;;;15.80;99.90;;;;;;5034887;22;20240;-72
2021/07/09 00:33:57;;;;;;;6.40;5.90;;;15.80;99.90;;;;;;5027951;28;20209;-72
2021/07/09 00:36:26;;;;;;;6.25;5.72;;;15.80;99.90;;;;;;5051029;22;20312;-71
2021/07/09 00:38:52;;;;;;;5.93;5.53;;;15.80;99.90;;;;;;5057153;28;20220;-71
2021/07/09 00:41:20;;;;;;;12.32;6.45;;;15.80;99.90;;;;;;5056959;22;20233;-72
2021/07/09 00:43:47;;;;;;;6.57;6.05;;;15.70;99.90;;;;;;5046509;28;20237;-72
2021/07/09 00:46:14;;;;;;;6.80;6.25;;;15.70;99.90;;;;;;5044610;22;20333;-71
2021/07/09 00:48:41;;;;;;;6.13;5.72;;;15.80;99.90;;;;;;5045161;28;20208;-70
2021/07/09 00:51:11;;;;;;;6.40;5.88;;;15.80;99.90;;;;;;5045300;28;20212;-70
2021/07/09 00:53:38;;;;;;;6.85;6.10;;;15.80;99.90;;;;;;5037817;28;20216;-70
2021/07/09 00:56:06;;;;;;;7.30;6.65;;;15.80;99.90;;;;;;5046958;28;20233;-70
2021/07/09 00:58:34;;;;;;;6.82;6.20;;;15.80;99.90;;;;;;5041395;28;20322;-70
2021/07/09 01:01:01;;;;;;;6.82;6.32;;;15.80;99.90;;;;;;5044681;28;20237;-70
2021/07/09 01:03:28;;;;;;;6.63;6.13;;;15.70;99.90;;;;;;5044540;28;20204;-70
2021/07/09 01:05:55;;;;;;;7.00;6.50;;;15.70;99.90;;;;;;5037244;28;20281;-70
2021/07/09 01:08:23;;;;;;;7.57;6.95;;;15.70;99.90;;;;;;5045389;28;20207;-70
2021/07/09 01:10:50;;;;;;;7.72;7.07;;;15.70;99.90;;;;;;5043165;28;20207;-70
2021/07/09 01:13:17;;;;;;;8.15;7.50;;;15.70;99.90;;;;;;5045966;28;20295;-71
2021/07/09 01:15:45;;;;;;;8.27;7.43;;;15.70;99.90;;;;;;5045133;28;20235;-71
2021/07/09 01:18:12;;;;;;;9.65;7.82;;;15.70;99.90;;;;;;5042731;28;20282;-71
2021/07/09 01:20:39;;;;;;;9.63;8.65;;;15.70;99.90;;;;;;5035948;28;20216;-70
2021/07/09 01:23:08;;;;;;;10.02;9.23;;;15.70;99.90;;;;;;5046369;28;20200;-70
2021/07/09 01:25:36;;;;;;;9.98;9.07;;;15.70;99.90;;;;;;5046165;28;20212;-70
2021/07/09 01:28:06;;;;;;;10.80;9.80;;;15.70;99.90;;;;;;5046513;28;20216;-70
2021/07/09 01:30:35;;;;;;;10.65;9.85;;;15.70;99.90;;;;;;5041905;28;20198;-70
2021/07/09 01:33:02;;;;;;;11.32;10.32;;;15.70;99.90;;;;;;5044814;28;20208;-72
2021/07/09 01:35:30;;;;;;;11.40;8.30;;;15.70;99.90;;;;;;5043621;28;20233;-70
2021/07/09 01:37:58;;;;;;;9.35;8.45;;;15.70;99.90;;;;;;5037308;28;20211;-70
2021/07/09 01:40:26;;;;;;;9.32;8.45;;;15.70;99.90;;;;;;5038703;28;20198;-70
2021/07/09 01:42:54;;;;;;;10.68;9.75;;;15.70;99.90;;;;;;5044451;28;20223;-70
2021/07/09 01:45:22;;;;;;;8.90;8.20;;;15.70;99.90;;;;;;5041392;28;20210;-71
2021/07/09 01:47:49;;;;;;;11.45;10.38;;;15.70;99.90;;;;;;5038736;28;20300;-70
2021/07/09 01:50:17;;;;;;;12.32;11.05;;;15.60;99.90;;;;;;5064839;22;20232;-71
2021/07/09 01:52:45;;;;;;;11.75;10.65;;;15.60;99.90;;;;;;5082645;28;20240;-72
2021/07/09 01:55:14;;;;;;;11.50;10.30;;;15.60;99.90;;;;;;5071959;22;20296;-70
2021/07/09 01:57:41;;;;;;;11.18;10.00;;;15.60;99.90;;;;;;5038489;28;20547;-71
2021/07/09 02:00:12;;;;;;;8.98;8.18;;;15.60;99.90;;;;;;5045547;28;20220;-71
2021/07/09 02:02:40;;;;;;;8.30;7.60;;;15.60;99.90;;;;;;5040640;28;20284;-71
2021/07/09 02:05:08;;;;;;;8.38;7.68;;;15.60;99.90;;;;;;5049438;28;20198;-71
2021/07/09 02:07:36;;;;;;;8.88;8.18;;;15.50;99.90;;;;;;5050274;28;20615;-71
2021/07/09 02:10:05;;;;;;;8.25;7.55;;;15.50;99.90;;;;;;5042155;28;20221;-71
2021/07/09 02:12:33;;;;;;;9.73;7.50;;;15.50;99.90;;;;;;5042534;28;20674;-71
2021/07/09 02:15:01;;;;;;;8.88;8.15;;;15.50;99.90;;;;;;5040579;28;20225;-70
2021/07/09 02:17:33;;;;;;;13.27;7.72;;;15.50;99.90;;;;;;5049823;28;20206;-70
2021/07/09 02:20:00;;;;;;;7.20;6.60;;;15.50;99.90;;;;;;5043925;28;20938;-70
2021/07/09 02:22:28;;;;;;;7.82;7.13;;;15.50;99.90;;;;;;5042626;28;20202;-71
2021/07/09 02:24:55;;;;;;;8.85;7.68;;;15.50;99.90;;;;;;5049179;28;20470;-70
2021/07/09 02:27:21;;;;;;;7.05;6.35;;;15.50;99.90;;;;;;5049571;28;20198;-71
2021/07/09 02:29:48;;;;;;;7.07;6.57;;;15.50;99.90;;;;;;5049290;28;20212;-70
2021/07/09 02:32:15;;;;;;;10.30;6.70;;;15.50;99.90;;;;;;5039304;28;20205;-70
2021/07/09 02:34:44;;;;;;;7.03;6.53;;;15.50;99.90;;;;;;5041506;28;20202;-70
2021/07/09 02:37:11;;;;;;;7.45;6.75;;;15.40;99.90;;;;;;5048519;28;20208;-70
2021/07/09 02:39:40;;;;;;;6.70;6.10;;;15.50;99.90;;;;;;5049689;28;20229;-71
2021/07/09 02:42:08;;;;;;;5.97;5.53;;;15.50;99.90;;;;;;5043081;28;20221;-70
2021/07/09 02:44:36;;;;;;;7.85;6.03;;;15.50;99.90;;;;;;5045680;28;20205;-71
2021/07/09 02:47:04;;;;;;;6.10;5.60;;;15.50;99.90;;;;;;5044392;28;20216;-71
2021/07/09 02:49:31;;;;;;;6.53;6.00;;;15.40;99.90;;;;;;5037063;28;20662;-70
2021/07/09 02:52:00;;;;;;;6.45;5.85;;;15.50;99.90;;;;;;5044706;28;20236;-70
2021/07/09 02:54:27;;;;;;;6.00;5.45;;;15.40;99.90;;;;;;5045990;28;20238;-72
2021/07/09 02:56:54;;;;;;;6.00;5.60;;;15.40;99.90;;;;;;5041939;28;20229;-70
2021/07/09 02:59:21;;;;;;;5.90;5.40;;;15.40;99.90;;;;;;5044426;28;20202;-70
2021/07/09 03:01:48;;;;;;;6.47;5.88;;;15.40;99.90;;;;;;5048669;28;20292;-71
2021/07/09 03:04:15;;;;;;;6.35;5.85;;;15.40;99.90;;;;;;5049367;28;20193;-71
2021/07/09 03:06:42;;;;;;;7.13;6.50;;;15.40;99.90;;;;;;5042099;28;20212;-71
2021/07/09 03:09:11;;;;;;;6.13;5.63;;;15.40;99.90;;;;;;5045270;28;20209;-70
2021/07/09 03:11:39;;;;;;;6.80;6.30;;;15.40;99.90;;;;;;5047374;28;20858;-70
2021/07/09 03:14:07;;;;;;;7.10;6.50;;;15.40;99.90;;;;;;5043301;28;20280;-70
2021/07/09 03:16:35;;;;;;;6.00;5.60;;;15.50;99.90;;;;;;5044501;28;20221;-71
2021/07/09 03:19:01;;;;;;;6.72;6.22;;;15.40;99.90;;;;;;5045972;28;20199;-70
2021/07/09 03:21:28;;;;;;;7.43;6.68;;;15.50;99.90;;;;;;5043375;28;20198;-70
2021/07/09 03:23:55;;;;;;;6.53;6.03;;;15.50;99.90;;;;;;5047563;28;20316;-70
2021/07/09 03:26:23;;;;;;;6.38;5.80;;;15.40;99.90;;;;;;5048436;28;20629;-70
2021/07/09 03:28:50;;;;;;;6.63;5.90;;;15.40;99.90;;;;;;5043096;28;20212;-70
2021/07/09 03:31:17;;;;;;;6.72;6.13;;;15.50;99.90;;;;;;5044276;28;20240;-70
2021/07/09 03:33:44;;;;;;;9.10;6.90;;;15.50;99.90;;;;;;5048356;28;20225;-71
2021/07/09 03:36:11;;;;;;;6.70;6.20;;;15.50;99.90;;;;;;5066678;22;20657;-71
2021/07/09 03:38:37;;;;;;;7.25;6.65;;;15.50;99.90;;;;;;5065375;28;20220;-71
2021/07/09 03:41:04;;;;;;;6.68;6.18;;;15.40;99.90;;;;;;5061828;28;20209;-72
2021/07/09 03:43:32;;;;;;;7.47;6.70;;;15.40;99.90;;;;;;5067406;28;20853;-72
2021/07/09 03:45:59;;;;;;;7.85;6.70;;;15.40;99.90;;;;;;5075160;22;20239;-71
2021/07/09 03:48:26;;;;;;;8.35;7.57;;;15.40;99.90;;;;;;5064962;28;20205;-71
2021/07/09 03:50:53;;;;;;;8.40;7.57;;;15.40;99.90;;;;;;5066900;28;20686;-71
2021/07/09 03:53:20;;;;;;;9.23;7.20;;;15.40;99.90;;;;;;5064809;28;20201;-71
2021/07/09 03:55:46;;;;;;;8.60;7.80;;;15.40;99.90;;;;;;5072291;28;20229;-71
2021/07/09 03:58:13;;;;;;;8.13;7.32;;;15.40;99.90;;;;;;5065477;28;20915;-72
2021/07/09 04:00:41;;;;;;;7.15;6.65;;;15.40;99.90;;;;;;5067586;28;20197;-71
2021/07/09 04:03:08;;;;;;;7.50;6.85;;;15.40;99.90;;;;;;5067750;28;20223;-71
2021/07/09 04:05:35;;;;;;;8.13;7.43;;;15.40;99.90;;;;;;5066762;28;20304;-71
2021/07/09 04:08:02;;;;;;;7.32;6.72;;;15.40;99.90;;;;;;5068061;28;20283;-71
2021/07/09 04:10:29;;;;;;;7.97;7.28;;;15.40;99.90;;;;;;5068212;28;20197;-70
2021/07/09 04:12:55;;;;;;;7.60;7.00;;;15.40;99.90;;;;;;5068302;28;20201;-71
2021/07/09 04:15:22;;;;;;;7.60;7.05;;;15.40;99.90;;;;;;5060672;28;20228;-71
2021/07/09 04:17:51;;;;;;;7.20;6.70;;;15.40;99.90;;;;;;5066782;28;20295;-71
2021/07/09 04:20:18;;;;;;;6.57;6.07;;;15.40;99.90;;;;;;5064806;28;20288;-72
2021/07/09 04:22:45;;;;;;;7.10;6.60;;;15.40;99.90;;;;;;5067230;28;20220;-71
2021/07/09 04:25:12;;;;;;;7.20;6.60;;;15.40;99.90;;;;;;5066559;28;20224;-71
2021/07/09 04:27:41;;;;;;;6.10;5.70;;;15.40;99.90;;;;;;5066528;28;20212;-72
2021/07/09 04:30:09;;;;;;;6.80;6.20;;;15.30;99.90;;;;;;5067737;28;20205;-72
2021/07/09 04:32:36;;;;;;;7.80;7.18;;;15.30;99.90;;;;;;5066860;28;20322;-71
2021/07/09 04:35:05;;;;;;;7.22;6.55;;;15.40;99.90;;;;;;5061920;28;20289;-70
2021/07/09 04:37:32;;;;;;;7.70;6.93;;;15.40;99.90;;;;;;5066844;28;20224;-71
2021/07/09 04:39:59;;;;;;;7.25;6.65;;;15.30;99.90;;;;;;5061244;28;20205;-71
2021/07/09 04:42:26;;;;;;;7.72;6.95;;;15.30;99.90;;;;;;5067126;28;20189;-71
2021/07/09 04:44:53;;;;;;;7.30;6.70;;;15.30;99.90;;;;;;5066568;28;20208;-71
2021/07/09 04:47:20;;;;;;;7.20;6.70;;;15.30;99.90;;;;;;5069904;28;20205;-71
2021/07/09 04:49:47;;;;;;;7.72;7.03;;;15.30;99.90;;;;;;5066820;28;20197;-71
2021/07/09 04:52:20;;;;;;;8.13;7.32;;;15.30;99.90;;;;;;5064476;28;20208;-73
2021/07/09 04:54:49;;;;;;;6.97;6.47;;;15.30;99.90;;;;;;5061665;28;20200;-72
2021/07/09 04:57:16;;;;;;;7.90;7.30;;;15.30;99.90;;;;;;5066789;28;20323;-72
2021/07/09 04:59:43;;;;;;;7.32;6.78;;;15.20;99.90;;;;;;5066241;28;20713;-72
2021/07/09 05:02:10;;;;;;;7.30;6.60;;;15.20;99.90;;;;;;5067036;28;20677;-72
2021/07/09 05:04:37;;;;;;;7.65;7.03;;;15.20;99.90;;;;;;5066615;28;20238;-71
2021/07/09 05:07:04;;;;;;;8.90;8.20;;;15.20;99.90;;;;;;5062823;28;20205;-71
2021/07/09 05:09:32;;;;;;;6.80;6.30;;;15.30;99.90;;;;;;5066542;28;20625;-70
2021/07/09 05:11:59;;;;;;;7.38;6.78;;;15.20;99.90;;;;;;5066233;28;20295;-72
2021/07/09 05:14:27;;;;;;;6.93;6.40;;;15.20;99.90;;;;;;5066868;28;20677;-74
2021/07/09 05:16:54;;;;;;;7.45;6.95;;;15.20;99.90;;;;;;5065960;28;20232;-71
2021/07/09 05:19:21;;;;;;;7.35;6.85;;;15.20;99.90;;;;;;5059840;28;20204;-71
2021/07/09 05:21:48;;;;;;;7.45;6.85;;;15.20;99.90;;;;;;5066502;28;20295;-72
2021/07/09 05:24:16;;;;;;;7.50;6.80;;;15.20;99.90;;;;;;5065573;28;20741;-71
2021/07/09 05:26:46;;;;;;;7.35;6.80;;;15.30;99.90;;;;;;5056890;22;20229;-73
2021/07/09 05:29:13;;;;;;;6.63;6.13;;;15.20;99.90;;;;;;5038146;28;20209;-73
2021/07/09 05:31:41;;;;;;;7.35;6.75;;;15.30;99.90;;;;;;5078794;22;20324;-72
2021/07/09 05:34:08;;;;;;;7.60;6.90;;;15.30;99.90;;;;;;5080324;28;20704;-71
2021/07/09 05:36:36;;;;;;;6.53;6.03;;;15.30;99.90;;;;;;5081045;28;20216;-71
2021/07/09 05:39:03;;;;;;;7.20;6.70;;;15.30;99.90;;;;;;5085585;28;20294;-71
2021/07/09 05:41:30;;;;;;;6.93;6.32;;;15.40;99.90;;;;;;5084064;28;20192;-72
2021/07/09 05:43:58;;;;;;;7.25;6.55;;;15.40;99.90;;;;;;5086188;28;20319;-72
2021/07/09 05:46:26;;;;;;;6.30;5.90;;;15.40;99.90;;;;;;5080232;28;20200;-72
2021/07/09 05:48:53;;;;;;;6.00;5.50;;;15.40;99.90;;;;;;5084655;28;20204;-72
2021/07/09 05:51:20;;;;;;;7.80;7.20;;;15.30;99.90;;;;;;5085390;28;20643;-71
2021/07/09 05:53:47;;;;;;;6.35;5.85;;;15.40;99.90;;;;;;5084951;28;20279;-72
2021/07/09 05:56:14;;;;;;;6.40;5.93;;;15.40;99.90;;;;;;5080480;22;20353;-73
2021/07/09 05:58:41;;;;;;;7.50;6.70;;;15.30;99.90;;;;;;5066643;28;20665;-73
2021/07/09 06:01:09;;;;;;;7.22;6.53;;;15.40;99.90;;;;;;5070823;22;20233;-72
2021/07/09 06:03:36;;;;;;;6.82;6.32;;;15.40;99.90;;;;;;5063028;28;20209;-72
2021/07/09 06:06:03;;;;;;;6.82;6.32;;;15.40;99.90;;;;;;5063694;22;20330;-73
2021/07/09 06:08:30;;;;;;;6.88;6.38;;;15.40;99.90;;;;;;5044981;28;20208;-73
2021/07/09 06:10:57;;;;;;;6.90;6.40;;;15.40;99.90;;;;;;5046836;22;21027;-72
2021/07/09 06:13:24;;;;;;;6.97;6.38;;;15.50;99.90;;;;;;5046196;28;20201;-72
2021/07/09 06:15:51;;;;;;;7.75;7.15;;;15.50;99.90;;;;;;5045453;28;20300;-71
2021/07/09 06:18:20;;;;;;;7.38;6.80;;;15.50;99.90;;;;;;5046176;28;20205;-72
2021/07/09 06:20:47;;;;;;;6.85;6.30;;;15.50;99.90;;;;;;5045891;28;20209;-74
2021/07/09 06:23:14;;;;;;;7.10;6.50;;;15.60;99.90;;;;;;5045526;28;20210;-74
2021/07/09 06:25:41;;;;;;;6.60;6.10;;;15.70;99.90;;;;;;5046234;28;20229;-71
2021/07/09 06:28:08;;;;;;;7.18;6.68;;;15.80;99.90;;;;;;5047600;28;20208;-71
2021/07/09 06:30:35;;;;;;;7.05;6.55;;;15.90;99.90;;;;;;5036365;28;20202;-72
2021/07/09 06:33:03;;;;;;;7.88;7.18;;;16.00;99.90;;;;;;5044358;28;20210;-72
2021/07/09 06:35:31;;;;;;;6.47;5.97;;;16.10;99.90;;;;;;5040794;28;20302;-71
2021/07/09 06:37:59;;;;;;;6.90;6.40;;;16.20;99.90;;;;;;5046315;28;20233;-71
2021/07/09 06:40:26;;;;;;;6.05;5.20;;;16.30;99.90;;;;;;5055122;22;20221;-73
2021/07/09 06:42:53;;;;;;;8.30;6.00;;;16.40;99.90;;;;;;5068850;28;20208;-72
2021/07/09 06:45:20;;;;;;;6.65;6.15;;;16.60;99.90;;;;;;5071708;22;21019;-72
2021/07/09 06:47:49;;;;;;;6.30;5.72;;;16.60;99.90;;;;;;5059382;28;20198;-72
2021/07/09 06:50:16;;;;;;;7.05;6.45;;;16.70;99.90;;;;;;5059329;28;20635;-71
2021/07/09 06:52:45;;;;;;;6.25;5.85;;;16.70;99.90;;;;;;5068804;28;20205;-72
2021/07/09 06:55:13;;;;;;;6.88;6.35;;;16.70;99.90;;;;;;5067958;28;20232;-72
2021/07/09 06:57:45;;;;;;;7.72;7.13;;;16.60;99.90;;;;;;5068567;28;20279;-72
2021/07/09 07:00:17;;;;;;;7.47;6.88;;;16.60;99.90;;;;;;5071734;22;20701;-72
2021/07/09 07:02:46;;;;;;;6.95;6.35;;;16.50;99.90;;;;;;5068567;28;20312;-72
2021/07/09 07:05:14;;;;;;;7.05;6.55;;;16.50;99.90;;;;;;5074065;22;20201;-71
2021/07/09 07:07:41;;;;;;;7.22;6.57;;;16.40;99.90;;;;;;5048564;28;20206;-71
2021/07/09 07:10:11;;;;;;;6.22;5.82;;;16.40;99.90;;;;;;5052983;28;20200;-71
2021/07/09 07:12:38;;;;;;;7.00;6.57;;;16.50;99.90;;;;;;5047649;28;20208;-71
2021/07/09 07:15:07;;;;;;;7.43;6.93;;;16.40;99.90;;;;;;5047391;28;20208;-71
2021/07/09 07:17:34;;;;;;;7.50;6.95;;;16.30;99.90;;;;;;5047954;28;20798;-71
2021/07/09 07:20:01;;;;;;;7.30;6.80;;;16.30;99.90;;;;;;5048137;28;20209;-71
2021/07/09 07:22:28;;;;;;;8.30;7.57;;;16.40;99.90;;;;;;5047777;28;20208;-71
2021/07/09 07:24:54;;;;;;;6.90;6.40;;;16.40;99.90;;;;;;5055698;28;20209;-71
2021/07/09 07:27:24;;;;;;;7.65;7.07;;;16.50;99.90;;;;;;5049695;28;20288;-71
2021/07/09 07:29:52;;;;;;;7.70;7.10;;;16.50;99.90;;;;;;5046843;28;20259;-71
2021/07/09 07:32:18;;;;;;;7.97;7.35;;;16.50;99.90;;;;;;5050744;28;20228;-71
2021/07/09 07:34:45;;;;;;;7.18;6.57;;;16.70;99.90;;;;;;5047744;28;20205;-71
2021/07/09 07:37:12;;;;;;;6.78;6.28;;;16.70;99.90;;;;;;5045549;28;20217;-71
2021/07/09 07:39:40;;;;;;;6.72;6.22;;;16.80;99.90;;;;;;5047524;28;20210;-71
2021/07/09 07:42:08;;;;;;;7.07;6.57;;;16.90;99.90;;;;;;5034507;28;20199;-71
2021/07/09 07:44:40;;;;;;;7.30;6.70;;;17.10;99.90;;;;;;5047910;28;20193;-71
2021/07/09 07:47:07;;;;;;;6.43;5.90;;;17.20;99.90;;;;;;5044488;28;20651;-71
2021/07/09 07:49:33;;;;;;;6.68;6.18;;;17.30;99.90;;;;;;5049336;28;20634;-71
2021/07/09 07:52:00;;;;;;;6.47;6.03;;;17.50;99.90;;;;;;5046923;28;20201;-71
2021/07/09 07:54:29;;;;;;;7.30;6.40;;;17.60;99.90;;;;;;5047061;28;21070;-72
2021/07/09 07:57:02;;;;;;;6.90;6.40;;;17.70;99.90;;;;;;5054213;22;20710;-72
2021/07/09 07:59:31;;;;;;;6.97;6.47;;;17.90;99.90;;;;;;5046084;28;20636;-72
2021/07/09 08:02:00;;;;;;;7.37;6.80;;;18.00;99.90;;;;;;5053164;22;20692;-71
2021/07/09 08:04:28;;;;;;;7.03;6.53;;;18.10;99.90;;;;;;5047823;28;20632;-71
2021/07/09 08:06:55;;;;;;;7.30;6.70;;;18.20;99.90;;;;;;5042705;28;21052;-71
2021/07/09 08:09:22;;;;;;;7.67;7.07;;;18.30;99.90;;;;;;5047127;28;21250;-71
2021/07/09 08:11:51;;;;;;;8.43;7.50;;;18.30;99.90;;;;;;5047153;28;21159;-71
2021/07/09 08:14:18;;;;;;;7.03;6.53;;;18.40;99.90;;;;;;5047299;28;20651;-71
2021/07/09 08:16:50;;;;;;;8.00;7.40;;;18.50;99.90;;;;;;5052944;28;20647;-71
2021/07/09 08:19:19;;;;;;;9.80;7.60;;;18.60;99.90;;;;;;5047815;28;20648;-71
2021/07/09 08:21:46;;;;;;;7.97;7.27;;;18.80;99.90;;;;;;5045841;28;20681;-71
2021/07/09 08:24:14;;;;;;;7.47;6.97;;;18.70;99.90;;;;;;5047017;28;20667;-71
2021/07/09 08:26:40;;;;;;;8.07;7.43;;;18.90;99.90;;;;;;5047461;28;20695;-71
2021/07/09 08:29:08;;;;;;;7.03;6.43;;;19.20;99.90;;;;;;5047075;28;21555;-71
2021/07/09 08:31:38;;;;;;;7.33;6.83;;;19.20;99.90;;;;;;5046802;28;20997;-71
2021/07/09 08:34:06;;;;;;;7.33;6.83;;;19.20;99.90;;;;;;5045271;28;20857;-71
2021/07/09 08:36:34;;;;;;;8.23;7.20;;;19.40;99.90;;;;;;5046470;28;20667;-71
2021/07/09 08:39:02;;;;;;;7.60;7.10;;;19.30;99.90;;;;;;5044765;28;20702;-71
2021/07/09 08:41:29;;;;;;;7.67;7.00;;;19.30;99.90;;;;;;5045961;28;20628;-71
2021/07/09 08:43:56;;;;;;;7.37;6.67;;;19.40;99.90;;;;;;5046735;28;20674;-71
2021/07/09 08:46:27;;;;;;;7.53;7.03;;;19.40;99.90;;;;;;5039100;28;20725;-71
2021/07/09 08:48:55;;;;;;;7.30;6.70;;;19.50;99.90;;;;;;5042312;28;20642;-71
2021/07/09 08:51:21;;;;;;;7.50;6.90;;;19.70;99.90;;;;;;5043948;28;20639;-71
2021/07/09 08:53:50;;;;;;;7.10;6.50;;;19.80;99.90;;;;;;5038282;28;20724;-72
2021/07/09 08:56:20;;;;;;;7.80;7.20;;;19.80;99.90;;;;;;5044180;28;20731;-71
2021/07/09 08:58:50;;;;;;;8.13;5.93;;;19.70;99.90;;;;;;5044762;28;21354;-71
2021/07/09 09:01:18;;;;;;;6.73;6.33;;;19.80;99.90;;;;;;5044896;28;20679;-72
2021/07/09 09:03:44;;;;;;;8.03;7.43;;;19.80;99.90;;;;;;5042793;28;20986;-71
2021/07/09 09:06:16;;;;;;;7.23;6.73;;;19.80;99.90;;;;;;5040467;28;20662;-71
2021/07/09 09:08:43;;;;;;;8.23;7.40;;;20.00;99.90;;;;;;5044504;28;20727;-71
2021/07/09 09:11:12;;;;;;;7.30;6.67;;;20.10;99.90;;;;;;5045403;28;20635;-72
2021/07/09 09:13:39;;;;;;;6.17;5.77;;;20.50;99.90;;;;;;5043774;28;20697;-71
2021/07/09 09:16:10;;;;;;;6.63;6.10;;;21.10;99.90;;;;;;5040095;28;20625;-71
2021/07/09 09:18:39;;;;;;;6.27;5.87;;;22.00;99.90;;;;;;5041402;28;20677;-71
2021/07/09 09:21:08;;;;;;;5.23;4.80;;;23.00;99.90;;;;;;5036305;28;20641;-71
2021/07/09 09:23:37;;;;;;;4.83;4.53;;;23.80;99.90;;;;;;5045840;28;20638;-71
2021/07/09 09:26:06;;;;;;;5.23;4.63;;;24.90;99.90;;;;;;5032594;28;20719;-70
2021/07/09 09:28:38;;;;;;;5.63;5.20;;;25.20;99.30;;;;;;5037249;28;20633;-71
2021/07/09 09:31:05;;;;;;;4.63;4.33;;;25.00;98.80;;;;;;5043013;28;20616;-71
2021/07/09 09:33:36;;;;;;;4.30;4.10;;;24.70;99.40;;;;;;5041862;28;20685;-70
2021/07/09 09:36:07;;;;;;;5.73;5.17;;;24.30;98.60;;;;;;5044706;28;21010;-71
2021/07/09 09:38:35;;;;;;;5.90;5.30;;;24.00;99.50;;;;;;5037646;28;20635;-70
2021/07/09 09:41:03;;;;;;;5.17;4.77;;;23.70;99.90;;;;;;5037326;28;20645;-70
2021/07/09 09:43:32;;;;;;;4.97;4.67;;;23.50;98.80;;;;;;5045432;28;20737;-71
2021/07/09 09:46:07;;;;;;;5.57;5.17;;;23.70;99.30;;;;;;5039052;28;20643;-71
2021/07/09 09:48:45;;;;;;;5.93;5.53;;;23.70;99.40;;;;;;5045279;28;20671;-70
2021/07/09 09:51:37;;;;;;;5.03;4.73;;;23.50;98.60;;;;;;5043672;28;21202;-70
2021/07/09 09:54:07;;;;;;;6.33;5.83;;;23.40;97.80;;;;;;5049848;28;20630;-70
2021/07/09 09:56:40;;;;;;;6.10;5.60;;;23.50;98.50;;;;;;5033377;28;20651;-70
2021/07/09 09:59:24;;;;;;;6.50;6.00;;;23.40;99.40;;;;;;5035881;28;20634;-70
2021/07/09 10:01:56;;;;;;;6.47;5.97;;;23.10;99.40;;;;;;5039721;28;20686;-70
2021/07/09 10:04:25;;;;;;;6.67;6.20;;;23.10;98.90;;;;;;5041325;28;20626;-71
2021/07/09 10:06:54;;;;;;;6.70;6.20;;;23.20;99.50;;;;;;5041730;28;20604;-71
2021/07/09 10:09:24;;;;;;;10.23;6.10;;;23.10;99.50;;;;;;5045035;28;20666;-70
2021/07/09 10:11:51;;;;;;;6.00;5.60;;;22.70;99.00;;;;;;5043697;28;21184;-71
2021/07/09 10:14:21;;;;;;;6.53;6.03;;;22.50;99.90;;;;;;5036126;28;20710;-71
2021/07/09 10:16:49;;;;;;;6.03;5.63;;;22.20;99.90;;;;;;5042830;28;20976;-71
2021/07/09 10:19:21;;;;;;;6.03;5.57;;;22.30;99.90;;;;;;5044274;28;20628;-73
2021/07/09 10:21:48;;;;;;;5.67;5.17;;;22.50;99.00;;;;;;5044344;28;20709;-73
2021/07/09 10:24:18;;;;;;;6.60;6.10;;;22.50;99.30;;;;;;5042885;28;20632;-70
2021/07/09 10:26:50;;;;;;;5.80;5.40;;;22.60;99.50;;;;;;5047604;28;21035;-70
2021/07/09 10:29:19;;;;;;;6.13;5.73;;;22.50;98.70;;;;;;5046219;28;20679;-71
2021/07/09 10:31:48;;;;;;;6.80;6.30;;;22.50;98.40;;;;;;5049238;28;20727;-71
2021/07/09 10:34:38;;;;;;;6.57;5.70;;;22.80;99.40;;;;;;5047474;28;20705;-71
2021/07/09 10:37:08;;;;;;;6.50;6.00;;;23.00;98.00;;;;;;5047431;28;21270;-70
2021/07/09 10:39:41;;;;;;;7.00;6.50;;;23.20;97.60;;;;;;5048570;28;21067;-70
2021/07/09 10:42:18;;;;;;;6.63;6.07;;;23.10;97.90;;;;;;5049972;28;20632;-70
2021/07/09 10:45:09;;;;;;;7.13;6.63;;;23.10;97.40;;;;;;5035870;28;21057;-70
2021/07/09 10:47:48;;;;;;;6.97;6.30;;;23.40;97.20;;;;;;5046831;28;20667;-73
2021/07/09 10:50:18;;;;;;;7.23;6.67;;;23.60;97.00;;;;;;5049214;28;21058;-73
2021/07/09 10:52:57;;;;;;;6.80;6.40;;;23.50;97.20;;;;;;5049696;28;21150;-70
2021/07/09 10:55:36;;;;;;;7.90;7.33;;;23.40;96.80;;;;;;5056894;28;20944;-70
2021/07/09 10:58:24;;;;;;;7.57;6.93;;;23.10;97.30;;;;;;5033257;28;20625;-70
2021/07/09 11:00:54;;;;;;;7.77;7.17;;;23.40;98.40;;;;;;5062758;28;20630;-70
2021/07/09 11:03:35;;;;;;;7.50;7.00;;;23.60;96.30;;;;;;5052926;28;20715;-70
2021/07/09 11:06:06;;;;;;;9.40;8.50;;;23.30;97.10;;;;;;5049308;28;20636;-70
2021/07/09 11:08:39;;;;;;;9.13;8.37;;;22.80;97.40;;;;;;5043790;28;21359;-70
2021/07/09 11:11:08;;;;;;;9.20;8.50;;;22.60;98.90;;;;;;5041807;28;20665;-70
2021/07/09 11:13:46;;;;;;;8.87;8.17;;;22.30;98.10;;;;;;5045111;28;20640;-70
2021/07/09 11:16:27;;;;;;;9.17;8.37;;;22.40;99.30;;;;;;5047139;28;20704;-70
2021/07/09 11:18:56;;;;;;;9.17;8.47;;;22.70;99.90;;;;;;5047266;28;20725;-70
2021/07/09 11:21:46;;;;;;;9.47;8.70;;;23.00;99.40;;;;;;5042785;28;20627;-70
2021/07/09 11:24:15;;;;;;;9.50;8.80;;;22.80;98.40;;;;;;5038357;28;21028;-70
2021/07/09 11:26:43;;;;;;;9.80;9.10;;;22.50;98.20;;;;;;5048392;28;20689;-71
2021/07/09 11:29:38;;;;;;;9.53;8.73;;;21.90;98.00;;;;;;5048175;28;20682;-70
2021/07/09 11:32:07;;;;;;;10.57;9.57;;;21.60;98.40;;;;;;5033701;28;20640;-72
2021/07/09 11:34:36;;;;;;;10.80;9.60;;;21.50;99.10;;;;;;5046988;28;20630;-72
2021/07/09 11:37:06;;;;;;;11.30;10.30;;;21.80;99.90;;;;;;5046763;28;20730;-72
2021/07/09 11:39:35;;;;;;;9.80;9.00;;;21.80;99.00;;;;;;5047903;28;21226;-72
2021/07/09 11:42:06;;;;;;;10.07;9.27;;;21.70;99.90;;;;;;5048423;28;20628;-72
2021/07/09 11:44:35;;;;;;;11.23;10.17;;;22.00;99.90;;;;;;5048598;28;20620;-72
2021/07/09 11:47:04;;;;;;;10.10;9.10;;;22.60;99.20;;;;;;5043871;28;20664;-72
2021/07/09 11:49:33;;;;;;;9.93;9.13;;;22.80;97.80;;;;;;5048289;28;20788;-72
2021/07/09 11:52:02;;;;;;;10.27;9.30;;;22.70;98.50;;;;;;5039991;28;20670;-70
2021/07/09 11:54:33;;;;;;;10.60;9.70;;;22.30;98.00;;;;;;5048604;28;21059;-72
2021/07/09 11:57:04;;;;;;;10.97;10.07;;;22.10;99.70;;;;;;5066015;22;20697;-71
2021/07/09 11:59:32;;;;;;;12.13;10.97;;;21.80;99.70;;;;;;5068243;28;20637;-73
2021/07/09 12:02:08;;;;;;;11.57;10.67;;;21.80;99.90;;;;;;5053898;22;20687;-72
2021/07/09 12:04:37;;;;;;;11.13;10.33;;;22.30;99.90;;;;;;5024106;28;20691;-72
2021/07/09 12:07:24;;;;;;;9.70;9.00;;;23.30;99.90;;;;;;5018109;28;20626;-70
2021/07/09 12:10:03;;;;;;;10.07;9.37;;;23.90;99.40;;;;;;5022766;28;20681;-70
2021/07/09 12:12:33;;;;;;;10.40;9.50;;;24.30;98.60;;;;;;5020826;28;20614;-70
2021/07/09 12:15:06;;;;;;;11.40;10.40;;;24.80;96.60;;;;;;5027508;28;20648;-73
2021/07/09 12:17:36;;;;;;;9.97;9.13;;;24.70;97.10;;;;;;5024660;28;21328;-70
2021/07/09 12:20:14;;;;;;;10.60;9.70;;;24.70;97.00;;;;;;5028809;28;20697;-72
2021/07/09 12:22:48;;;;;;;12.03;11.10;;;24.00;95.20;;;;;;5026506;28;20607;-70
2021/07/09 12:25:18;;;;;;;12.77;11.57;;;23.20;98.30;;;;;;5027211;28;20633;-74
2021/07/09 12:27:45;;;;;;;13.47;12.27;;;22.30;99.90;;;;;;5023062;28;21244;-73
2021/07/09 12:30:15;;;;;;;10.50;9.70;;;21.70;99.90;;;;;;5026876;28;20803;-73
2021/07/09 12:33:00;;;;;;;11.47;10.57;;;21.30;99.90;;;;;;5025848;28;20641;-73
2021/07/09 12:35:28;;;;;;;12.67;11.67;;;21.50;99.90;;;;;;5021468;28;20727;-73
2021/07/09 12:38:00;;;;;;;13.93;12.83;;;22.00;99.90;;;;;;5011426;28;21065;-73
2021/07/09 12:40:49;;;;;;;13.23;11.93;;;22.30;99.90;;;;;;5024556;28;20629;-74
2021/07/09 12:43:19;;;;;;;12.00;10.90;;;22.70;99.90;;;;;;5020257;28;20637;-73
2021/07/09 12:45:54;;;;;;;11.00;10.20;;;22.70;99.00;;;;;;5027202;28;20743;-73
2021/07/09 12:48:30;;;;;;;11.80;10.83;;;22.40;99.40;;;;;;5028451;28;20678;-71
2021/07/09 12:50:57;;;;;;;12.50;11.50;;;22.50;99.30;;;;;;5026676;28;20644;-71
2021/07/09 12:53:26;;;;;;;13.17;12.07;;;22.40;97.80;;;;;;5025579;28;21272;-71
2021/07/09 12:55:55;;;;;;;12.50;11.53;;;22.30;99.90;;;;;;5026390;28;20744;-73
2021/07/09 12:58:25;;;;;;;13.63;12.43;;;22.60;99.50;;;;;;5027780;28;20636;-73
2021/07/09 13:00:55;;;;;;;12.80;11.80;;;22.90;99.90;;;;;;5014925;28;20653;-72